createdAt,value
2022-12-19T00:00:03.279Z,18.37
2022-12-19T00:01:35.009Z,18.54
2022-12-19T00:03:06.800Z,18.24
2022-12-19T00:04:38.407Z,17.99
2022-12-19T00:06:10.250Z,19.04
2022-12-19T00:07:41.948Z,18.53
2022-12-19T00:09:13.418Z,18.15
2022-12-19T00:10:45.228Z,18.58
2022-12-19T00:12:19.487Z,18.74
2022-12-19T00:13:50.842Z,18.86
2022-12-19T00:15:22.427Z,18.77
2022-12-19T00:16:54.176Z,18.48
2022-12-19T00:18:25.622Z,18.05
2022-12-19T00:20:01.929Z,18.36
2022-12-19T00:21:35.104Z,18.45
2022-12-19T00:23:47.364Z,18.80
2022-12-19T00:25:19.127Z,18.95
2022-12-19T00:26:50.749Z,18.32
2022-12-19T00:28:22.401Z,19.01
2022-12-19T00:29:53.767Z,18.72
2022-12-19T00:31:25.007Z,19.40
2022-12-19T00:32:56.204Z,18.71
2022-12-19T00:34:28.167Z,18.53
2022-12-19T00:35:59.497Z,18.48
2022-12-19T00:37:30.819Z,18.40
2022-12-19T00:39:02.536Z,18.60
2022-12-19T00:40:39.157Z,18.95
2022-12-19T00:42:10.476Z,18.89
2022-12-19T00:43:42.005Z,16.49
2022-12-19T00:45:13.726Z,17.76
2022-12-19T00:46:51.054Z,19.27
2022-12-19T00:48:24.293Z,18.59
2022-12-19T00:49:55.664Z,18.54
2022-12-19T00:51:27.011Z,18.02
2022-12-19T00:52:58.503Z,18.68
2022-12-19T00:54:30.139Z,18.03
2022-12-19T00:56:01.763Z,18.35
2022-12-19T00:57:33.019Z,19.23
2022-12-19T00:59:04.399Z,18.10
2022-12-19T01:00:35.637Z,17.93
2022-12-19T01:02:07.009Z,18.70
2022-12-19T01:03:38.322Z,19.10
2022-12-19T01:05:09.604Z,18.01
2022-12-19T01:06:40.882Z,18.69
2022-12-19T01:08:12.384Z,18.61
2022-12-19T01:09:43.715Z,18.09
2022-12-19T01:11:16.810Z,18.86
2022-12-19T01:12:48.212Z,18.42
2022-12-19T01:14:23.065Z,17.88
2022-12-19T01:15:54.810Z,18.31
2022-12-19T01:17:26.545Z,18.77
2022-12-19T01:18:58.944Z,18.86
2022-12-19T01:20:33.339Z,17.80
2022-12-19T01:22:04.640Z,18.14
2022-12-19T01:23:36.596Z,19.20
2022-12-19T01:25:08.101Z,17.87
2022-12-19T01:26:39.318Z,18.71
2022-12-19T01:28:10.582Z,18.40
2022-12-19T01:29:52.307Z,18.29
2022-12-19T01:31:24.277Z,18.12
2022-12-19T01:32:55.897Z,17.88
2022-12-19T01:34:27.251Z,18.29
2022-12-19T01:35:58.690Z,18.81
2022-12-19T01:37:29.900Z,18.47
2022-12-19T01:39:01.323Z,18.06
2022-12-19T01:40:32.734Z,16.59
2022-12-19T01:42:04.235Z,16.38
2022-12-19T01:43:35.680Z,16.22
2022-12-19T01:45:13.368Z,16.56
2022-12-19T01:46:45.490Z,17.39
2022-12-19T01:48:17.168Z,16.37
2022-12-19T01:49:48.483Z,17.83
2022-12-19T01:51:20.094Z,17.19
2022-12-19T01:52:51.493Z,16.75
2022-12-19T01:54:22.811Z,17.34
2022-12-19T01:55:54.258Z,16.98
2022-12-19T01:57:25.606Z,17.23
2022-12-19T01:59:05.964Z,16.90
2022-12-19T02:00:38.416Z,17.13
2022-12-19T02:02:10.059Z,17.73
2022-12-19T02:03:41.616Z,17.34
2022-12-19T02:05:12.986Z,16.45
2022-12-19T02:06:44.613Z,16.89
2022-12-19T02:08:16.175Z,17.38
2022-12-19T02:09:50.581Z,17.60
2022-12-19T02:11:28.698Z,18.15
2022-12-19T02:13:05.877Z,18.31
2022-12-19T02:14:37.504Z,18.47
2022-12-19T02:16:09.043Z,17.75
2022-12-19T02:17:40.490Z,18.04
2022-12-19T02:19:13.140Z,17.90
2022-12-19T02:20:45.127Z,17.47
2022-12-19T02:22:19.118Z,17.56
2022-12-19T02:23:51.112Z,18.19
2022-12-19T02:25:22.424Z,18.02
2022-12-19T02:26:53.831Z,17.96
2022-12-19T02:28:25.557Z,18.17
2022-12-19T02:29:57.016Z,17.63
2022-12-19T02:31:28.843Z,17.37
2022-12-19T02:33:00.310Z,17.84
2022-12-19T02:34:31.850Z,17.56
2022-12-19T02:36:03.158Z,17.22
2022-12-19T02:37:34.589Z,18.04
2022-12-19T02:39:06.514Z,18.44
2022-12-19T02:40:37.879Z,17.77
2022-12-19T02:42:09.081Z,17.60
2022-12-19T02:43:41.721Z,17.53
2022-12-19T02:45:13.298Z,17.92
2022-12-19T02:46:51.635Z,17.32
2022-12-19T02:48:23.016Z,17.52
2022-12-19T02:49:56.021Z,17.41
2022-12-19T02:51:27.331Z,16.76
2022-12-19T02:52:58.979Z,16.93
2022-12-19T02:54:30.276Z,17.47
2022-12-19T02:56:01.785Z,16.97
2022-12-19T02:57:35.612Z,16.64
2022-12-19T02:59:08.336Z,16.86
2022-12-19T03:00:39.605Z,16.65
2022-12-19T03:02:11.957Z,16.81
2022-12-19T03:03:43.948Z,16.38
2022-12-19T03:05:15.817Z,16.70
2022-12-19T03:06:47.987Z,16.53
2022-12-19T03:08:20.545Z,16.76
2022-12-19T03:09:51.976Z,16.60
2022-12-19T03:11:23.989Z,16.28
2022-12-19T03:12:55.682Z,16.48
2022-12-19T03:14:27.006Z,16.26
2022-12-19T03:15:58.573Z,15.81
2022-12-19T03:17:30.288Z,14.70
2022-12-19T03:19:01.540Z,14.72
2022-12-19T03:20:33.062Z,15.79
2022-12-19T03:22:04.553Z,14.77
2022-12-19T03:23:36.648Z,14.54
2022-12-19T03:25:08.327Z,15.60
2022-12-19T03:26:40.089Z,15.82
2022-12-19T03:28:11.495Z,15.04
2022-12-19T03:29:43.342Z,15.07
2022-12-19T03:31:14.736Z,15.44
2022-12-19T03:32:46.266Z,14.59
2022-12-19T03:34:17.924Z,15.77
2022-12-19T03:35:49.772Z,13.68
2022-12-19T03:37:21.095Z,14.84
2022-12-19T03:38:52.461Z,15.77
2022-12-19T03:40:24.152Z,15.34
2022-12-19T03:41:56.914Z,15.38
2022-12-19T03:43:28.446Z,14.01
2022-12-19T03:44:59.978Z,13.82
2022-12-19T03:46:31.337Z,15.75
2022-12-19T03:48:02.764Z,15.89
2022-12-19T03:49:34.123Z,15.59
2022-12-19T03:51:05.814Z,13.95
2022-12-19T03:52:37.075Z,14.58
2022-12-19T03:54:08.319Z,14.34
2022-12-19T03:55:39.942Z,14.13
2022-12-19T03:57:11.279Z,14.16
2022-12-19T03:58:43.823Z,16.87
2022-12-19T04:00:15.513Z,15.46
2022-12-19T04:01:47.304Z,15.25
2022-12-19T04:03:18.907Z,15.77
2022-12-19T04:04:50.353Z,15.36
2022-12-19T04:06:21.509Z,15.06
2022-12-19T04:07:52.879Z,15.35
2022-12-19T04:09:24.097Z,15.97
2022-12-19T04:10:56.043Z,14.18
2022-12-19T04:12:28.497Z,15.58
2022-12-19T04:14:00.213Z,14.87
2022-12-19T04:15:31.570Z,15.84
2022-12-19T04:17:02.958Z,14.30
2022-12-19T04:18:34.523Z,14.20
2022-12-19T04:20:06.836Z,14.98
2022-12-19T04:21:38.219Z,14.69
2022-12-19T04:23:09.422Z,15.04
2022-12-19T04:24:40.977Z,15.84
2022-12-19T04:26:12.791Z,16.24
2022-12-19T04:27:44.443Z,15.46
2022-12-19T04:29:16.268Z,16.40
2022-12-19T04:30:48.188Z,16.36
2022-12-19T04:32:19.552Z,15.18
2022-12-19T04:33:52.092Z,16.30
2022-12-19T04:35:24.030Z,16.34
2022-12-19T04:36:55.425Z,15.67
2022-12-19T04:38:26.795Z,15.10
2022-12-19T04:39:58.044Z,14.64
2022-12-19T04:41:29.374Z,15.00
2022-12-19T04:43:00.791Z,16.27
2022-12-19T04:44:32.449Z,15.87
2022-12-19T04:46:03.972Z,15.51
2022-12-19T04:47:35.769Z,16.00
2022-12-19T04:49:07.081Z,13.93
2022-12-19T04:50:38.427Z,14.08
2022-12-19T04:52:09.929Z,15.03
2022-12-19T04:53:41.279Z,12.64
2022-12-19T04:55:12.739Z,14.64
2022-12-19T04:56:44.555Z,15.78
2022-12-19T04:58:20.235Z,15.28
2022-12-19T04:59:53.001Z,15.06
2022-12-19T05:01:24.388Z,15.10
2022-12-19T05:02:55.962Z,12.57
2022-12-19T05:04:27.299Z,15.01
2022-12-19T05:05:58.981Z,15.48
2022-12-19T05:07:30.268Z,15.60
2022-12-19T05:09:02.268Z,15.44
2022-12-19T05:10:33.851Z,12.82
2022-12-19T05:12:05.287Z,13.99
2022-12-19T05:13:36.758Z,14.80
2022-12-19T05:15:08.497Z,15.62
2022-12-19T05:16:40.348Z,15.29
2022-12-19T05:18:12.175Z,15.39
2022-12-19T05:19:43.705Z,15.61
2022-12-19T05:21:15.499Z,14.68
2022-12-19T05:22:47.018Z,14.92
2022-12-19T05:24:19.572Z,14.58
2022-12-19T05:25:51.769Z,14.97
2022-12-19T05:27:23.415Z,14.50
2022-12-19T05:28:55.147Z,14.66
2022-12-19T05:30:26.753Z,15.09
2022-12-19T05:31:58.243Z,15.60
2022-12-19T05:33:30.591Z,13.40
2022-12-19T05:35:01.921Z,14.53
2022-12-19T05:36:33.652Z,16.03
2022-12-19T05:38:05.069Z,15.49
2022-12-19T05:39:36.856Z,15.53
2022-12-19T05:41:08.076Z,13.24
2022-12-19T05:42:39.563Z,14.56
2022-12-19T05:44:11.053Z,14.67
2022-12-19T05:45:42.522Z,15.02
2022-12-19T05:47:27.451Z,15.04
2022-12-19T05:48:58.959Z,15.13
2022-12-19T05:50:32.075Z,15.11
2022-12-19T05:52:03.831Z,13.87
2022-12-19T05:53:35.581Z,14.24
2022-12-19T05:55:06.880Z,13.92
2022-12-19T05:56:38.766Z,12.38
2022-12-19T05:58:15.504Z,12.84
2022-12-19T05:59:47.468Z,12.99
2022-12-19T06:01:19.016Z,12.60
2022-12-19T06:02:56.256Z,12.52
2022-12-19T06:04:28.307Z,13.69
2022-12-19T06:06:00.187Z,13.04
2022-12-19T06:07:31.915Z,12.74
2022-12-19T06:09:03.337Z,12.80
2022-12-19T06:10:34.553Z,13.87
2022-12-19T06:12:06.261Z,13.82
2022-12-19T06:13:37.971Z,12.61
2022-12-19T06:15:09.754Z,11.84
2022-12-19T06:16:41.080Z,12.85
2022-12-19T06:18:12.911Z,12.42
2022-12-19T06:19:44.201Z,12.84
2022-12-19T06:21:15.669Z,12.74
2022-12-19T06:22:47.345Z,10.82
2022-12-19T06:24:18.653Z,10.89
2022-12-19T06:25:50.241Z,10.32
2022-12-19T06:27:21.571Z,11.36
2022-12-19T06:28:53.033Z,11.83
2022-12-19T06:30:24.505Z,11.50
2022-12-19T06:31:56.101Z,11.64
2022-12-19T06:33:27.565Z,10.49
2022-12-19T06:35:04.981Z,12.15
2022-12-19T06:36:36.489Z,11.28
2022-12-19T06:38:07.789Z,11.66
2022-12-19T06:39:39.276Z,11.37
2022-12-19T06:41:10.611Z,11.25
2022-12-19T06:42:42.328Z,12.26
2022-12-19T06:44:13.843Z,10.78
2022-12-19T06:45:45.289Z,10.83
2022-12-19T06:47:16.725Z,11.10
2022-12-19T06:48:48.365Z,10.38
2022-12-19T06:50:19.910Z,10.33
2022-12-19T06:51:51.303Z,11.26
2022-12-19T06:53:23.398Z,11.26
2022-12-19T06:54:54.853Z,9.99
2022-12-19T06:56:26.284Z,10.73
2022-12-19T06:57:57.845Z,10.17
2022-12-19T06:59:29.738Z,11.21
2022-12-19T07:01:01.911Z,12.02
2022-12-19T07:02:34.040Z,11.39
2022-12-19T07:04:05.648Z,11.57
2022-12-19T07:05:36.991Z,11.39
2022-12-19T07:07:08.460Z,10.79
2022-12-19T07:08:40.316Z,12.09
2022-12-19T07:10:12.206Z,11.64
2022-12-19T07:11:43.778Z,11.50
2022-12-19T07:13:16.141Z,11.39
2022-12-19T07:14:53.105Z,10.76
2022-12-19T07:16:25.418Z,10.21
2022-12-19T07:17:57.108Z,10.32
2022-12-19T07:19:28.684Z,11.53
2022-12-19T07:21:00.004Z,11.55
2022-12-19T07:22:31.283Z,11.51
2022-12-19T07:24:02.533Z,9.89
2022-12-19T07:25:34.131Z,10.42
2022-12-19T07:27:05.595Z,10.16
2022-12-19T07:28:37.253Z,10.19
2022-12-19T07:30:08.551Z,10.22
2022-12-19T07:31:40.187Z,10.27
2022-12-19T07:33:13.607Z,10.84
2022-12-19T07:34:49.280Z,11.09
2022-12-19T07:36:21.064Z,10.70
2022-12-19T07:37:53.057Z,10.29
2022-12-19T07:39:24.594Z,11.52
2022-12-19T07:40:56.157Z,11.47
2022-12-19T07:42:32.234Z,11.16
2022-12-19T07:44:04.073Z,11.77
2022-12-19T07:45:36.094Z,10.73
2022-12-19T07:47:08.107Z,11.89
2022-12-19T07:48:39.506Z,10.05
2022-12-19T07:50:10.943Z,11.50
2022-12-19T07:51:42.354Z,11.30
2022-12-19T07:53:13.555Z,11.94
2022-12-19T07:54:45.043Z,10.62
2022-12-19T07:56:16.293Z,10.31
2022-12-19T07:57:48.044Z,11.55
2022-12-19T07:59:24.427Z,11.18
2022-12-19T08:00:58.978Z,12.25
2022-12-19T08:02:30.721Z,10.79
2022-12-19T08:04:57.287Z,11.60
2022-12-19T08:06:29.493Z,8.73
2022-12-19T08:08:01.303Z,11.62
2022-12-19T08:09:33.021Z,11.35
2022-12-19T08:11:04.900Z,11.55
2022-12-19T08:12:36.981Z,11.79
2022-12-19T08:14:09.013Z,12.23
2022-12-19T08:15:40.711Z,13.39
2022-12-19T08:17:21.300Z,12.94
2022-12-19T08:18:52.941Z,11.48
2022-12-19T08:20:24.531Z,11.41
2022-12-19T08:22:28.125Z,12.14
2022-12-19T08:24:05.108Z,12.32
2022-12-19T08:25:36.407Z,11.59
2022-12-19T08:27:28.171Z,12.66
2022-12-19T08:28:59.433Z,10.82
2022-12-19T08:30:30.770Z,8.73
2022-12-19T08:32:02.083Z,10.21
2022-12-19T08:33:33.581Z,10.74
2022-12-19T08:35:04.857Z,11.39
2022-12-19T08:36:36.268Z,12.26
2022-12-19T08:38:07.713Z,12.27
2022-12-19T08:39:39.317Z,10.23
2022-12-19T08:41:10.643Z,9.97
2022-12-19T08:42:42.189Z,12.05
2022-12-19T08:44:13.733Z,12.70
2022-12-19T08:45:45.131Z,11.75
2022-12-19T08:47:16.587Z,12.04
2022-12-19T08:48:47.909Z,12.49
2022-12-19T08:50:19.620Z,12.93
2022-12-19T08:51:50.988Z,12.99
2022-12-19T08:53:26.263Z,13.02
2022-12-19T08:54:58.417Z,13.06
2022-12-19T08:56:29.969Z,11.88
2022-12-19T08:58:01.499Z,10.95
2022-12-19T08:59:33.295Z,12.34
2022-12-19T09:01:05.950Z,12.25
2022-12-19T09:02:37.671Z,12.56
2022-12-19T09:06:02.335Z,12.92
2022-12-19T09:07:38.830Z,11.18
2022-12-19T09:09:10.558Z,10.90
2022-12-19T09:10:41.769Z,12.03
2022-12-19T09:12:13.136Z,11.66
2022-12-19T09:13:45.045Z,10.64
2022-12-19T09:15:16.499Z,11.28
2022-12-19T09:16:48.149Z,10.74
2022-12-19T09:18:19.623Z,11.08
2022-12-19T09:19:56.054Z,11.34
2022-12-19T09:21:27.395Z,10.55
2022-12-19T09:22:58.787Z,10.97
2022-12-19T09:24:30.160Z,11.07
2022-12-19T09:26:01.684Z,11.22
2022-12-19T09:27:47.407Z,10.35
2022-12-19T09:29:54.503Z,10.59
2022-12-19T09:31:26.257Z,10.88
2022-12-19T09:32:57.565Z,10.75
2022-12-19T09:34:37.305Z,10.57
2022-12-19T09:36:10.072Z,10.73
2022-12-19T09:37:41.451Z,10.71
2022-12-19T09:39:12.942Z,9.69
2022-12-19T09:40:44.387Z,10.53
2022-12-19T09:42:16.146Z,10.42
2022-12-19T09:43:47.487Z,9.79
2022-12-19T09:45:31.980Z,10.79
2022-12-19T09:47:04.206Z,10.73
2022-12-19T09:48:36.084Z,9.70
2022-12-19T09:50:07.599Z,10.97
2022-12-19T09:51:39.005Z,9.86
2022-12-19T09:53:11.642Z,9.68
2022-12-19T09:54:43.330Z,9.45
2022-12-19T09:56:14.943Z,10.44
2022-12-19T09:57:46.773Z,9.74
2022-12-19T09:59:18.537Z,9.20
2022-12-19T10:00:59.694Z,9.70
2022-12-19T10:02:31.888Z,9.89
2022-12-19T10:04:03.478Z,10.32
2022-12-19T10:06:01.150Z,10.38
2022-12-19T10:10:12.193Z,10.81
2022-12-19T10:14:16.785Z,10.27
2022-12-19T10:15:59.852Z,9.52
2022-12-19T10:17:38.257Z,10.46
2022-12-19T10:19:34.971Z,10.52
2022-12-19T10:21:11.894Z,10.77
2022-12-19T10:22:43.208Z,10.25
2022-12-19T10:24:14.806Z,9.76
2022-12-19T10:25:46.280Z,9.74
2022-12-19T10:27:18.017Z,10.24
2022-12-19T10:28:49.713Z,9.46
2022-12-19T10:30:26.534Z,10.22
2022-12-19T10:32:00.646Z,10.35
2022-12-19T10:33:32.018Z,9.59
2022-12-19T10:35:03.623Z,9.13
2022-12-19T10:37:04.383Z,9.72
2022-12-19T10:38:51.250Z,10.12
2022-12-19T10:40:27.448Z,9.64
2022-12-19T10:41:59.978Z,9.06
2022-12-19T10:43:34.796Z,10.68
2022-12-19T10:45:09.377Z,10.65
2022-12-19T10:46:40.865Z,10.79
2022-12-19T10:48:12.376Z,10.80
2022-12-19T10:49:45.145Z,10.47
2022-12-19T10:51:18.135Z,9.83
2022-12-19T10:52:49.891Z,10.32
2022-12-19T10:54:21.486Z,9.98
2022-12-19T10:55:52.757Z,10.20
2022-12-19T10:57:24.133Z,8.76
2022-12-19T10:58:55.596Z,9.72
2022-12-19T11:00:28.599Z,10.34
2022-12-19T11:02:08.575Z,9.69
2022-12-19T11:03:43.082Z,9.92
2022-12-19T11:05:14.571Z,9.78
2022-12-19T11:06:46.181Z,9.43
2022-12-19T11:08:17.767Z,9.34
2022-12-19T11:10:08.121Z,9.54
2022-12-19T11:16:58.483Z,8.97
2022-12-19T11:30:36.283Z,9.12
2022-12-19T11:33:21.768Z,8.88
2022-12-19T11:34:53.146Z,8.76
2022-12-19T11:36:24.486Z,8.83
2022-12-19T11:37:56.127Z,8.55
2022-12-19T11:39:27.636Z,9.21
2022-12-19T11:40:59.170Z,9.10
2022-12-19T11:42:30.682Z,8.54
2022-12-19T11:44:02.047Z,7.81
2022-12-19T11:45:33.504Z,8.48
2022-12-19T11:47:05.192Z,7.83
2022-12-19T11:48:36.557Z,7.84
2022-12-19T11:50:08.054Z,8.10
2022-12-19T11:51:39.481Z,7.58
2022-12-19T11:53:18.331Z,8.39
2022-12-19T11:54:50.167Z,8.29
2022-12-19T11:56:23.012Z,7.76
2022-12-19T11:57:54.961Z,7.09
2022-12-19T11:59:26.818Z,7.05
2022-12-19T12:00:58.669Z,7.91
2022-12-19T12:02:29.934Z,6.88
2022-12-19T12:04:02.587Z,6.89
2022-12-19T12:05:34.858Z,7.81
2022-12-19T12:07:14.243Z,6.00
2022-12-19T12:11:46.784Z,7.00
2022-12-19T12:31:31.195Z,6.93
2022-12-19T12:40:29.534Z,6.16
2022-12-19T12:42:01.051Z,6.19
2022-12-19T12:43:32.331Z,6.40
2022-12-19T12:45:03.634Z,6.37
2022-12-19T12:46:35.264Z,6.44
2022-12-19T12:48:06.541Z,5.81
2022-12-19T12:49:37.843Z,6.39
2022-12-19T12:51:09.455Z,6.37
2022-12-19T12:52:41.051Z,6.60
2022-12-19T12:54:12.536Z,6.00
2022-12-19T12:55:43.871Z,6.22
2022-12-19T12:57:15.683Z,5.83
2022-12-19T12:58:47.021Z,5.99
2022-12-19T13:00:18.420Z,6.16
2022-12-19T13:01:49.786Z,6.60
2022-12-19T13:03:21.490Z,6.40
2022-12-19T13:04:53.943Z,6.38
2022-12-19T13:06:31.087Z,6.86
2022-12-19T13:08:06.187Z,6.37
2022-12-19T13:09:43.019Z,6.60
2022-12-19T13:11:14.526Z,6.25
2022-12-19T13:12:46.835Z,6.91
2022-12-19T13:14:36.060Z,6.66
2022-12-19T13:16:07.596Z,6.17
2022-12-19T13:17:38.967Z,6.18
2022-12-19T13:19:17.421Z,6.30
2022-12-19T13:20:52.679Z,6.30
2022-12-19T13:22:24.273Z,6.24
2022-12-19T13:23:55.597Z,5.62
2022-12-19T13:25:27.236Z,5.50
2022-12-19T13:27:06.081Z,5.97
2022-12-19T13:28:37.505Z,5.48
2022-12-19T13:30:08.837Z,5.64
2022-12-19T13:31:40.165Z,5.35
2022-12-19T13:33:11.826Z,5.44
2022-12-19T13:34:46.763Z,5.41
2022-12-19T13:39:51.267Z,5.34
2022-12-19T13:41:37.691Z,5.55
2022-12-19T13:43:11.236Z,5.50
2022-12-19T13:44:43.134Z,5.43
2022-12-19T13:46:14.654Z,5.27
2022-12-19T13:47:46.258Z,5.50
2022-12-19T13:49:45.981Z,5.68
2022-12-19T13:51:17.479Z,5.61
2022-12-19T13:52:48.898Z,5.26
2022-12-19T13:54:20.230Z,5.29
2022-12-19T13:55:51.640Z,5.52
2022-12-19T13:57:22.985Z,5.31
2022-12-19T13:58:54.255Z,4.91
2022-12-19T14:00:25.548Z,5.08
2022-12-19T14:01:59.438Z,5.19
2022-12-19T14:03:31.311Z,5.39
2022-12-19T14:05:03.570Z,5.14
2022-12-19T14:06:35.142Z,5.39
2022-12-19T14:08:06.599Z,5.25
2022-12-19T14:11:26.105Z,5.27
2022-12-19T14:13:45.585Z,5.67
2022-12-19T14:15:33.685Z,5.16
2022-12-19T14:17:04.973Z,5.04
2022-12-19T14:18:42.895Z,5.10
2022-12-19T14:22:04.208Z,5.15
2022-12-19T14:23:44.555Z,5.25
2022-12-19T14:28:16.744Z,5.26
2022-12-19T14:30:30.802Z,5.40
2022-12-19T14:33:39.458Z,5.30
2022-12-19T14:36:10.440Z,5.53
2022-12-19T14:38:13.122Z,5.49
2022-12-19T14:41:08.857Z,5.38
2022-12-19T14:43:55.845Z,5.72
2022-12-19T14:54:11.823Z,5.76
2022-12-19T14:56:59.094Z,5.87
2022-12-19T14:59:09.118Z,5.60
2022-12-19T15:01:09.225Z,5.34
2022-12-19T15:02:43.260Z,5.27
2022-12-19T15:04:52.575Z,5.75
2022-12-19T15:07:07.654Z,5.35
2022-12-19T15:10:58.352Z,5.50
2022-12-19T15:14:47.123Z,5.62
2022-12-19T15:16:42.984Z,5.29
2022-12-19T15:18:15.718Z,5.53
2022-12-19T15:19:48.616Z,5.54
2022-12-19T15:21:20.393Z,5.80
2022-12-19T15:22:51.702Z,5.96
2022-12-19T15:24:33.802Z,5.36
2022-12-19T15:26:20.180Z,5.27
2022-12-19T15:28:15.912Z,5.56
2022-12-19T15:32:11.016Z,5.07
2022-12-19T15:34:00.113Z,5.43
2022-12-19T15:36:13.088Z,5.40
2022-12-19T15:37:45.306Z,5.38
2022-12-19T15:39:17.163Z,4.99
2022-12-19T15:40:48.512Z,5.10
2022-12-19T15:42:35.130Z,5.07
2022-12-19T15:44:06.817Z,5.24
2022-12-19T15:45:38.854Z,5.25
2022-12-19T15:47:10.315Z,4.94
2022-12-19T15:48:41.749Z,5.61
2022-12-19T15:50:18.821Z,5.19
2022-12-19T15:52:10.028Z,5.02
2022-12-19T15:54:30.170Z,5.04
2022-12-19T15:56:25.480Z,4.90
2022-12-19T15:57:57.231Z,5.36
2022-12-19T15:59:36.414Z,4.99
2022-12-19T16:01:09.785Z,5.18
2022-12-19T16:03:23.572Z,4.76
2022-12-19T16:05:08.177Z,4.76
2022-12-19T16:06:39.621Z,4.47
2022-12-19T16:08:11.342Z,4.52
2022-12-19T16:09:43.319Z,4.75
2022-12-19T16:11:14.578Z,4.98
2022-12-19T16:12:46.377Z,4.61
2022-12-19T16:14:17.977Z,4.48
2022-12-19T16:15:59.604Z,4.54
2022-12-19T16:17:55.353Z,4.55
2022-12-19T16:19:51.009Z,5.20
2022-12-19T16:21:27.495Z,5.55
2022-12-19T16:23:29.602Z,4.58
2022-12-19T16:25:07.221Z,4.66
2022-12-19T16:26:39.350Z,4.63
2022-12-19T16:28:17.677Z,4.03
2022-12-19T16:29:49.943Z,3.28
2022-12-19T16:31:21.840Z,4.11
2022-12-19T16:33:06.618Z,4.31
2022-12-19T16:34:38.602Z,4.37
2022-12-19T16:36:10.803Z,4.09
2022-12-19T16:37:42.890Z,4.05
2022-12-19T16:39:14.781Z,4.03
2022-12-19T16:40:47.042Z,3.89
2022-12-19T16:42:20.092Z,4.05
2022-12-19T16:43:57.579Z,3.80
2022-12-19T16:45:29.124Z,3.87
2022-12-19T16:49:12.556Z,3.90
2022-12-19T16:50:49.394Z,3.69
2022-12-19T16:52:20.697Z,3.80
2022-12-19T16:53:52.307Z,4.22
2022-12-19T16:55:35.422Z,3.97
2022-12-19T16:57:07.475Z,3.84
2022-12-19T16:58:43.294Z,3.67
2022-12-19T17:00:35.340Z,3.54
2022-12-19T17:02:30.213Z,3.99
2022-12-19T17:04:12.062Z,3.82
2022-12-19T17:05:43.498Z,3.92
2022-12-19T17:07:15.016Z,3.81
2022-12-19T17:08:46.534Z,3.79
2022-12-19T17:10:21.303Z,3.33
2022-12-19T17:11:57.259Z,3.67
2022-12-19T17:13:28.819Z,3.52
2022-12-19T17:15:00.308Z,3.85
2022-12-19T17:17:00.285Z,3.77
2022-12-19T17:18:46.981Z,3.72
2022-12-19T17:20:18.699Z,3.55
2022-12-19T17:21:51.553Z,3.44
2022-12-19T17:23:23.112Z,3.59
2022-12-19T17:24:54.763Z,3.68
2022-12-19T17:26:26.663Z,3.67
2022-12-19T17:27:59.011Z,3.42
2022-12-19T17:29:30.471Z,3.50
2022-12-19T17:31:02.308Z,3.55
2022-12-19T17:32:34.202Z,3.91
2022-12-19T17:34:06.295Z,3.42
2022-12-19T17:35:50.685Z,4.14
2022-12-19T17:37:22.429Z,3.56
2022-12-19T17:38:53.801Z,3.84
2022-12-19T17:40:25.321Z,3.50
2022-12-19T17:41:56.973Z,4.04
2022-12-19T17:43:42.137Z,3.98
2022-12-19T17:45:18.589Z,3.59
2022-12-19T17:47:26.469Z,3.68
2022-12-19T17:48:58.044Z,3.73
2022-12-19T17:50:29.645Z,3.69
2022-12-19T17:52:01.548Z,3.27
2022-12-19T17:53:34.176Z,3.64
2022-12-19T17:55:14.186Z,4.71
2022-12-19T17:56:51.530Z,4.10
2022-12-19T17:58:23.254Z,3.37
2022-12-19T17:59:55.031Z,3.82
2022-12-19T18:01:26.627Z,4.16
2022-12-19T18:03:38.292Z,4.04
2022-12-19T18:05:30.682Z,3.61
2022-12-19T18:07:22.500Z,4.38
2022-12-19T18:09:21.916Z,4.63
2022-12-19T18:10:53.590Z,4.75
2022-12-19T18:12:29.904Z,4.72
2022-12-19T18:14:01.802Z,4.66
2022-12-19T18:15:33.164Z,4.87
2022-12-19T18:17:04.823Z,4.46
2022-12-19T18:18:56.599Z,4.32
2022-12-19T18:20:31.884Z,4.05
2022-12-19T18:22:35.032Z,4.52
2022-12-19T18:24:07.423Z,4.47
2022-12-19T18:26:01.506Z,4.62
2022-12-19T18:27:36.321Z,4.50
2022-12-19T18:29:13.442Z,4.37
2022-12-19T18:31:18.937Z,4.46
2022-12-19T18:32:50.786Z,4.23
2022-12-19T18:34:36.436Z,4.18
2022-12-19T18:36:15.465Z,4.42
2022-12-19T18:37:47.217Z,4.88
2022-12-19T18:39:18.637Z,4.23
2022-12-19T18:40:51.265Z,3.94
2022-12-19T18:42:23.501Z,4.35
2022-12-19T18:43:55.275Z,3.78
2022-12-19T18:45:42.892Z,4.22
2022-12-19T18:47:34.769Z,4.17
2022-12-19T18:49:13.912Z,3.38
2022-12-19T18:51:11.487Z,3.40
2022-12-19T18:52:54.396Z,4.27
2022-12-19T18:54:31.617Z,3.73
2022-12-19T18:56:31.458Z,3.77
2022-12-19T18:58:14.339Z,4.07
2022-12-19T18:59:50.881Z,3.67
2022-12-19T19:01:47.703Z,3.84
2022-12-19T19:03:39.201Z,3.79
2022-12-19T19:05:40.888Z,3.58
2022-12-19T19:07:13.679Z,3.85
2022-12-19T19:08:45.683Z,3.90
2022-12-19T19:10:18.603Z,4.05
2022-12-19T19:11:50.680Z,3.90
2022-12-19T19:13:22.447Z,3.74
2022-12-19T19:14:54.238Z,4.12
2022-12-19T19:16:25.924Z,3.71
2022-12-19T19:17:59.399Z,4.10
2022-12-19T19:19:31.215Z,3.84
2022-12-19T19:21:38.099Z,4.23
2022-12-19T19:23:09.562Z,3.70
2022-12-19T19:24:51.883Z,4.12
2022-12-19T19:26:25.484Z,4.15
2022-12-19T19:27:56.965Z,4.12
2022-12-19T19:29:28.657Z,4.22
2022-12-19T19:31:00.419Z,3.86
2022-12-19T19:32:32.148Z,4.25
2022-12-19T19:34:49.288Z,4.24
2022-12-19T19:36:28.652Z,3.51
2022-12-19T19:38:00.518Z,3.64
2022-12-19T19:39:32.118Z,4.20
2022-12-19T19:41:03.949Z,3.52
2022-12-19T19:42:45.834Z,3.64
2022-12-19T19:44:22.524Z,3.65
2022-12-19T19:45:59.221Z,3.94
2022-12-19T19:47:31.130Z,3.75
2022-12-19T19:49:15.061Z,3.72
2022-12-19T19:50:47.228Z,4.10
2022-12-19T19:52:19.110Z,4.37
2022-12-19T19:53:50.857Z,4.09
2022-12-19T19:55:29.747Z,3.76
2022-12-19T19:57:02.300Z,3.67
2022-12-19T19:59:03.914Z,3.69
2022-12-19T20:00:40.835Z,4.05
2022-12-19T20:02:46.661Z,4.06
2022-12-19T20:05:13.584Z,3.85
2022-12-19T20:06:45.895Z,3.53
2022-12-19T20:08:24.564Z,3.93
2022-12-19T20:11:57.784Z,3.65
2022-12-19T20:13:39.875Z,3.83
2022-12-19T20:15:21.945Z,3.47
2022-12-19T20:16:53.873Z,3.35
2022-12-19T20:18:25.601Z,3.41
2022-12-19T20:20:03.419Z,3.30
2022-12-19T20:21:45.106Z,3.47
2022-12-19T20:23:31.675Z,3.92
2022-12-19T20:25:19.458Z,3.79
2022-12-19T20:26:51.630Z,3.68
2022-12-19T20:28:23.635Z,4.02
2022-12-19T20:30:06.595Z,3.25
2022-12-19T20:32:17.550Z,3.69
2022-12-19T20:34:07.527Z,3.49
2022-12-19T20:35:44.963Z,3.63
2022-12-19T20:37:31.670Z,3.85
2022-12-19T20:39:20.411Z,3.80
2022-12-19T20:41:11.226Z,3.51
2022-12-19T20:42:55.593Z,3.76
2022-12-19T20:44:53.173Z,3.56
2022-12-19T20:46:34.952Z,3.48
2022-12-19T20:48:08.706Z,3.30
2022-12-19T20:49:40.145Z,3.69
2022-12-19T20:51:12.417Z,3.35
2022-12-19T20:52:46.087Z,3.46
2022-12-19T20:54:33.729Z,3.60
2022-12-19T20:56:05.601Z,3.01
2022-12-19T20:58:10.869Z,3.48
2022-12-19T20:59:42.741Z,3.40
2022-12-19T21:01:14.967Z,3.50
2022-12-19T21:03:25.748Z,3.52
2022-12-19T21:04:59.553Z,3.39
2022-12-19T21:06:41.007Z,3.26
2022-12-19T21:08:17.391Z,3.37
2022-12-19T21:10:16.083Z,3.55
2022-12-19T21:12:18.867Z,3.14
2022-12-19T21:14:00.660Z,3.24
2022-12-19T21:15:32.594Z,2.95
2022-12-19T21:17:04.171Z,3.04
2022-12-19T21:18:35.682Z,3.31
2022-12-19T21:20:08.154Z,3.56
2022-12-19T21:22:05.240Z,3.55
2022-12-19T21:23:41.887Z,3.48
2022-12-19T21:25:13.574Z,3.48
2022-12-19T21:26:45.461Z,3.63
2022-12-19T21:28:22.611Z,3.47
2022-12-19T21:29:59.609Z,3.19
2022-12-19T21:31:41.345Z,3.37
2022-12-19T21:33:54.071Z,3.51
2022-12-19T21:36:00.321Z,3.37
2022-12-19T21:37:43.850Z,3.05
2022-12-19T21:39:41.324Z,3.17
2022-12-19T21:41:13.114Z,3.05
2022-12-19T21:42:44.735Z,3.02
2022-12-19T21:44:16.993Z,3.28
2022-12-19T21:45:49.019Z,3.22
2022-12-19T21:47:20.809Z,2.94
2022-12-19T21:48:52.678Z,3.14
2022-12-19T21:50:25.017Z,2.66
2022-12-19T21:51:56.720Z,3.18
2022-12-19T21:53:33.537Z,3.43
2022-12-19T21:55:31.672Z,3.25
2022-12-19T21:57:08.413Z,3.02
2022-12-19T21:58:46.528Z,2.82
2022-12-19T22:00:40.469Z,3.22
2022-12-19T22:02:12.533Z,3.11
2022-12-19T22:05:36.621Z,3.06
2022-12-19T22:07:19.082Z,2.82
2022-12-19T22:09:49.770Z,2.77
2022-12-19T22:11:22.773Z,3.16
2022-12-19T22:13:18.566Z,2.89
2022-12-19T22:14:50.529Z,3.16
2022-12-19T22:17:04.055Z,3.06
2022-12-19T22:18:39.349Z,2.86
2022-12-19T22:20:11.179Z,2.70
2022-12-19T22:21:43.329Z,2.92
2022-12-19T22:23:15.835Z,2.97
2022-12-19T22:24:47.665Z,2.95